Time;durP1;ratioP1;P1;durP2;ratioP2;P2;SDS_P1;SDS_P2;PMS_P1;PMS_P2;Temp;Humidity;BMP_temperature;BMP_pressure;BME280_temperature;BME280_humidity;BME280_pressure;Samples;Min_cycle;Max_cycle;Signal;HPM_P1;HPM_P2
2023/03/27 00:00:42;;;;;;;0.20;0.20;;;;;;;6.55;59.46;100161.47;5010620;28;20061;-50
2023/03/27 00:03:09;;;;;;;1.08;0.40;;;;;;;6.58;59.98;100160.78;5007962;28;20499;-46
2023/03/27 00:05:35;;;;;;;0.25;0.25;;;;;;;6.62;59.57;100155.56;4997424;28;20531;-56
2023/03/27 00:08:02;;;;;;;0.30;0.30;;;;;;;6.66;58.93;100167.91;4996256;28;20066;-52
2023/03/27 00:10:28;;;;;;;0.30;0.30;;;;;;;6.56;59.59;100172.97;5004266;28;20044;-52
2023/03/27 00:12:54;;;;;;;0.30;0.30;;;;;;;6.58;59.09;100170.72;5009661;28;20034;-56
2023/03/27 00:15:22;;;;;;;0.40;0.40;;;;;;;6.62;58.91;100176.97;5009810;28;20504;-52
2023/03/27 00:17:50;;;;;;;0.30;0.30;;;;;;;6.48;59.86;100177.34;4998683;28;20064;-51
2023/03/27 00:20:23;;;;;;;0.22;0.22;;;;;;;6.41;59.66;100187.06;5003498;28;20049;-52
2023/03/27 00:22:54;;;;;;;0.30;0.30;;;;;;;6.37;60.89;100194.94;5001242;28;20030;-57
2023/03/27 00:25:21;;;;;;;0.32;0.32;;;;;;;6.36;60.99;100194.19;4997196;28;20444;-48
2023/03/27 00:27:47;;;;;;;0.30;0.30;;;;;;;6.25;61.73;100200.34;4994732;28;20081;-54
2023/03/27 00:30:14;;;;;;;0.30;0.30;;;;;;;6.21;61.41;100202.13;4998358;28;20036;-51
2023/03/27 00:32:40;;;;;;;0.73;0.38;;;;;;;6.23;61.53;100206.00;5015648;28;20124;-46
2023/03/27 00:35:08;;;;;;;0.20;0.20;;;;;;;6.25;61.00;100200.34;4999306;28;20466;-52
2023/03/27 00:37:34;;;;;;;0.20;0.20;;;;;;;6.30;61.24;100200.88;4998587;28;20051;-51
2023/03/27 00:40:00;;;;;;;0.30;0.30;;;;;;;6.27;60.86;100203.47;5002085;28;20026;-45
2023/03/27 00:42:28;;;;;;;0.90;0.88;;;;;;;6.15;61.76;100193.56;5011740;28;20045;-48
2023/03/27 00:44:54;;;;;;;0.25;0.25;;;;;;;6.18;62.42;100200.09;5002033;28;20038;-46
2023/03/27 00:47:32;;;;;;;0.30;0.30;;;;;;;6.27;61.84;100198.13;5004169;28;20038;-53
2023/03/27 00:50:02;;;;;;;0.20;0.20;;;;;;;6.13;62.55;100203.03;5011077;28;20424;-53
2023/03/27 00:52:30;;;;;;;0.30;0.30;;;;;;;6.11;63.28;100199.91;5006715;28;20038;-50
2023/03/27 00:55:04;;;;;;;0.20;0.20;;;;;;;6.15;63.25;100201.59;5009394;28;20034;-51
2023/03/27 00:57:30;;;;;;;0.73;0.45;;;;;;;6.07;63.64;100207.03;5010871;28;20041;-48
2023/03/27 00:59:59;;;;;;;0.30;0.30;;;;;;;5.99;63.83;100202.59;5001774;28;20053;-57
2023/03/27 01:02:27;;;;;;;0.30;0.30;;;;;;;6.00;63.83;100204.91;5008480;28;20058;-50
2023/03/27 01:04:54;;;;;;;0.45;0.45;;;;;;;6.16;63.54;100202.34;5007355;28;20153;-48
2023/03/27 01:07:21;;;;;;;0.30;0.30;;;;;;;5.95;63.84;100212.38;5010315;28;20109;-56
2023/03/27 01:09:48;;;;;;;0.20;0.20;;;;;;;5.96;64.24;100214.72;5004640;28;20112;-49
2023/03/27 01:12:43;;;;;;;0.32;0.32;;;;;;;6.01;64.39;100211.03;5010451;28;20635;-46
2023/03/27 01:15:17;;;;;;;0.20;0.20;;;;;;;5.93;64.05;100207.38;5004028;28;20048;-54
2023/03/27 01:17:52;;;;;;;0.30;0.30;;;;;;;6.08;64.23;100216.59;5007123;28;20033;-49
2023/03/27 01:20:48;;;;;;;0.40;0.40;;;;;;;6.12;63.30;100214.81;5008914;28;20061;-46
2023/03/27 01:23:29;;;;;;;0.82;0.40;;;;;;;6.23;62.70;100213.25;5005928;28;20396;-46
2023/03/27 01:26:30;;;;;;;0.20;0.20;;;;;;;6.17;62.90;100225.28;5018735;28;20034;-55
2023/03/27 01:29:00;;;;;;;0.30;0.30;;;;;;;6.16;62.56;100215.69;5003854;28;20047;-49
2023/03/27 01:31:48;;;;;;;0.20;0.20;;;;;;;6.10;62.60;100219.72;5008791;28;20033;-48
2023/03/27 01:34:37;;;;;;;0.20;0.20;;;;;;;5.91;63.44;100222.97;4999674;28;20033;-51
2023/03/27 01:37:16;;;;;;;0.30;0.30;;;;;;;5.90;63.28;100223.31;5006913;28;20408;-48
2023/03/27 01:39:52;;;;;;;0.20;0.20;;;;;;;5.88;63.96;100222.84;5000925;28;20041;-53
2023/03/27 01:42:27;;;;;;;0.20;0.20;;;;;;;5.87;64.21;100226.63;5022661;28;20053;-55
2023/03/27 01:45:15;;;;;;;0.38;0.38;;;;;;;5.90;64.89;100231.31;5009988;28;20025;-46
2023/03/27 01:47:44;;;;;;;0.30;0.30;;;;;;;5.85;64.30;100226.97;5005562;28;20117;-46
2023/03/27 01:50:26;;;;;;;0.30;0.30;;;;;;;5.79;65.13;100236.28;5008344;28;20042;-57
2023/03/27 01:52:56;;;;;;;0.30;0.30;;;;;;;5.74;65.64;100233.03;5008560;28;20124;-57
2023/03/27 01:55:28;;;;;;;0.38;0.38;;;;;;;5.66;66.51;100236.59;5008707;28;20022;-48
2023/03/27 01:58:04;;;;;;;1.38;0.73;;;;;;;5.76;66.07;100234.28;5001607;28;20056;-49
2023/03/27 02:00:34;;;;;;;0.30;0.30;;;;;;;5.79;65.73;100225.59;5001467;28;20034;-49
2023/03/27 02:03:14;;;;;;;0.30;0.30;;;;;;;5.76;65.48;100241.50;5006221;28;20022;-50
2023/03/27 02:05:55;;;;;;;0.30;0.30;;;;;;;5.70;66.20;100240.16;5007858;28;20408;-46
2023/03/27 02:08:34;;;;;;;0.40;0.40;;;;;;;5.58;65.63;100242.81;5008373;28;20619;-57
2023/03/27 02:11:10;;;;;;;0.20;0.20;;;;;;;5.44;66.77;100243.91;5002960;28;20497;-57
2023/03/27 02:13:44;;;;;;;0.63;0.47;;;;;;;5.45;66.80;100244.69;5024954;28;20037;-45
2023/03/27 02:16:15;;;;;;;0.20;0.20;;;;;;;5.33;68.27;100239.31;5006780;28;20073;-47
2023/03/27 02:18:49;;;;;;;0.30;0.30;;;;;;;5.38;67.95;100252.47;5003247;28;20125;-53
2023/03/27 02:21:14;;;;;;;0.30;0.30;;;;;;;5.36;68.40;100246.66;5007004;28;20120;-47
2023/03/27 02:23:43;;;;;;;0.28;0.28;;;;;;;5.35;67.96;100263.78;5009292;28;20025;-46
2023/03/27 02:26:12;;;;;;;0.47;0.40;;;;;;;5.40;68.12;100256.34;5006397;28;20614;-56
2023/03/27 02:28:38;;;;;;;0.43;0.43;;;;;;;5.35;68.31;100259.22;4998233;28;20038;-50
2023/03/27 02:31:12;;;;;;;0.30;0.30;;;;;;;5.32;68.30;100259.13;5009665;28;20068;-56
2023/03/27 02:34:03;;;;;;;0.25;0.25;;;;;;;5.31;68.46;100263.66;5005940;28;20497;-49
2023/03/27 02:36:34;;;;;;;1.08;0.50;;;;;;;5.40;67.97;100271.59;5003462;28;20057;-48
2023/03/27 02:39:17;;;;;;;0.30;0.30;;;;;;;5.34;68.76;100270.25;5021411;28;20447;-49
2023/03/27 02:41:56;;;;;;;0.30;0.30;;;;;;;5.35;68.97;100272.56;5003670;28;20113;-47
2023/03/27 02:44:50;;;;;;;0.20;0.20;;;;;;;5.42;68.43;100283.50;5003147;28;20030;-50
2023/03/27 02:47:55;;;;;;;0.20;0.20;;;;;;;5.44;68.17;100280.47;5005849;28;20034;-48
2023/03/27 02:50:29;;;;;;;0.30;0.30;;;;;;;5.35;68.75;100279.78;5023383;28;20113;-48
2023/03/27 02:53:04;;;;;;;0.30;0.30;;;;;;;5.30;69.58;100280.78;5004161;28;20037;-46
2023/03/27 02:55:37;;;;;;;0.20;0.20;;;;;;;5.26;70.14;100293.25;5008021;28;20052;-57
2023/03/27 02:58:11;;;;;;;0.40;0.40;;;;;;;5.32;69.57;100286.56;5017772;28;20057;-54
2023/03/27 03:00:47;;;;;;;0.30;0.30;;;;;;;5.19;70.70;100298.31;4999391;28;20041;-48
2023/03/27 03:03:43;;;;;;;0.38;0.30;;;;;;;5.04;72.01;100296.25;5006045;28;20261;-48
2023/03/27 03:06:29;;;;;;;0.65;0.65;;;;;;;5.18;71.66;100301.31;5005019;28;20037;-46
2023/03/27 03:09:17;;;;;;;0.30;0.30;;;;;;;5.25;72.09;100305.00;4995430;28;20038;-46
2023/03/27 03:11:47;;;;;;;0.30;0.30;;;;;;;5.29;72.22;100308.59;4923618;29;20550;-47
2023/03/27 03:14:13;;;;;;;0.20;0.20;;;;;;;5.32;71.67;100302.56;4933109;28;20049;-54
2023/03/27 03:16:38;;;;;;;0.30;0.30;;;;;;;5.32;71.70;100305.25;4930678;29;20441;-46
2023/03/27 03:19:04;;;;;;;0.32;0.32;;;;;;;5.35;71.31;100312.63;4926785;29;20034;-46
2023/03/27 03:21:30;;;;;;;0.32;0.30;;;;;;;5.29;71.96;100327.28;4928476;29;20051;-46
2023/03/27 03:23:56;;;;;;;0.32;0.32;;;;;;;5.26;72.54;100319.16;4932910;29;20105;-45
2023/03/27 03:26:22;;;;;;;1.58;0.30;;;;;;;5.25;73.32;100318.34;4931935;29;20501;-49
2023/03/27 03:28:48;;;;;;;0.35;0.35;;;;;;;5.24;73.07;100327.47;4918035;29;20571;-49
2023/03/27 03:31:14;;;;;;;0.20;0.20;;;;;;;5.21;72.80;100327.34;4942626;29;20057;-53
2023/03/27 03:33:41;;;;;;;0.22;0.22;;;;;;;5.12;73.54;100330.09;4931218;29;20039;-55
2023/03/27 03:36:07;;;;;;;0.40;0.40;;;;;;;5.14;73.01;100333.22;4945771;28;20903;-46
2023/03/27 03:38:36;;;;;;;0.20;0.20;;;;;;;4.96;74.12;100334.44;4944123;29;20189;-47
2023/03/27 03:41:03;;;;;;;0.20;0.20;;;;;;;5.02;74.19;100333.13;4950421;29;20138;-47
2023/03/27 03:43:30;;;;;;;0.35;0.35;;;;;;;5.08;73.74;100336.38;4933867;29;20861;-54
2023/03/27 03:45:56;;;;;;;1.90;0.52;;;;;;;5.04;73.69;100338.16;4950393;29;20391;-51
2023/03/27 03:48:23;;;;;;;0.10;0.10;;;;;;;5.15;72.76;100347.34;4959457;28;20099;-46
2023/03/27 03:50:49;;;;;;;0.30;0.30;;;;;;;5.13;73.40;100352.22;5002497;28;20025;-47
2023/03/27 03:53:18;;;;;;;0.20;0.20;;;;;;;5.13;73.05;100346.88;5007685;28;20030;-48
2023/03/27 03:55:45;;;;;;;0.32;0.32;;;;;;;5.07;73.34;100348.19;4999684;28;20038;-47
2023/03/27 03:58:11;;;;;;;0.30;0.30;;;;;;;5.12;73.67;100356.78;5020771;28;20033;-52
2023/03/27 04:00:38;;;;;;;0.20;0.20;;;;;;;5.19;73.11;100361.56;5007739;28;20028;-49
2023/03/27 04:03:15;;;;;;;0.30;0.30;;;;;;;5.19;72.71;100354.34;4998431;28;20066;-49
2023/03/27 04:05:41;;;;;;;0.43;0.43;;;;;;;5.12;72.54;100355.97;5009293;28;20443;-57
2023/03/27 04:08:07;;;;;;;0.20;0.20;;;;;;;5.07;72.84;100359.63;5002975;28;20498;-59
2023/03/27 04:11:02;;;;;;;0.30;0.30;;;;;;;5.01;73.12;100363.59;4975715;28;20042;-57
2023/03/27 04:13:57;;;;;;;0.20;0.20;;;;;;;5.05;73.21;100367.16;5004536;28;20057;-49
2023/03/27 04:16:29;;;;;;;0.43;0.43;;;;;;;5.05;73.56;100367.16;4999292;28;20034;-52
2023/03/27 04:18:57;;;;;;;0.38;0.38;;;;;;;5.04;73.99;100372.81;5002039;28;20041;-55
2023/03/27 04:21:25;;;;;;;0.65;0.55;;;;;;;4.98;74.01;100366.13;5008416;28;20065;-50
2023/03/27 04:23:51;;;;;;;0.10;0.10;;;;;;;5.01;74.48;100381.50;5008171;28;20152;-54
2023/03/27 04:26:26;;;;;;;0.30;0.30;;;;;;;4.97;73.98;100378.69;5007884;28;20456;-47
2023/03/27 04:29:09;;;;;;;0.30;0.30;;;;;;;4.95;74.43;100386.25;5005694;28;20132;-52
2023/03/27 04:32:04;;;;;;;0.30;0.30;;;;;;;4.91;74.60;100388.00;5009524;28;20045;-46
2023/03/27 04:34:45;;;;;;;0.73;0.65;;;;;;;4.96;74.40;100390.47;5008990;28;20080;-55
2023/03/27 04:37:21;;;;;;;1.73;0.45;;;;;;;4.99;74.32;100394.38;5014743;28;20507;-48
2023/03/27 04:39:59;;;;;;;5.57;0.60;;;;;;;4.98;74.25;100393.59;5010414;28;20045;-46
2023/03/27 04:42:25;;;;;;;0.30;0.30;;;;;;;4.55;75.98;100403.69;5006399;28;20033;-54
2023/03/27 04:44:51;;;;;;;0.30;0.30;;;;;;;4.68;76.50;100405.38;5010463;28;20038;-54
2023/03/27 04:47:19;;;;;;;0.30;0.30;;;;;;;4.80;75.77;100402.78;5009173;28;20397;-47
2023/03/27 04:49:49;;;;;;;3.67;0.60;;;;;;;4.82;76.09;100415.81;5003911;28;20038;-57
2023/03/27 04:52:28;;;;;;;0.50;0.50;;;;;;;4.76;76.11;100401.88;5010806;28;20064;-54
2023/03/27 04:54:54;;;;;;;0.77;0.77;;;;;;;4.62;77.01;100414.66;5009245;28;20396;-46
2023/03/27 04:57:21;;;;;;;0.65;0.52;;;;;;;4.59;77.29;100412.63;4993172;28;20121;-47
2023/03/27 04:59:48;;;;;;;0.40;0.40;;;;;;;4.65;77.83;100419.34;4997562;28;20030;-49
2023/03/27 05:02:32;;;;;;;0.35;0.35;;;;;;;4.61;77.75;100415.75;5001969;28;20108;-49
2023/03/27 05:05:08;;;;;;;1.92;0.50;;;;;;;4.76;78.00;100417.09;4996343;28;20034;-49
2023/03/27 05:07:35;;;;;;;1.23;0.90;;;;;;;4.80;77.72;100413.44;4985222;28;20116;-56
2023/03/27 05:10:03;;;;;;;3.20;0.85;;;;;;;4.92;77.28;100421.56;5021158;28;20030;-48
2023/03/27 05:12:29;;;;;;;0.47;0.47;;;;;;;4.99;77.01;100418.38;5003140;28;20033;-46
2023/03/27 05:14:59;;;;;;;0.30;0.30;;;;;;;4.98;77.53;100425.59;5001852;28;20117;-46
2023/03/27 05:17:40;;;;;;;0.85;0.85;;;;;;;4.84;78.52;100426.94;5005244;28;20041;-46
2023/03/27 05:20:10;;;;;;;0.40;0.40;;;;;;;4.86;78.57;100430.84;5023733;28;20057;-50
2023/03/27 05:22:37;;;;;;;0.40;0.40;;;;;;;4.93;78.50;100435.69;5004783;28;20037;-50
2023/03/27 05:25:15;;;;;;;0.60;0.60;;;;;;;4.95;78.54;100439.59;5003692;28;20034;-46
2023/03/27 05:27:48;;;;;;;0.52;0.52;;;;;;;4.98;78.36;100443.47;5022019;28;20108;-50
2023/03/27 05:30:20;;;;;;;0.40;0.40;;;;;;;4.99;79.07;100437.84;4991930;28;20033;-54
2023/03/27 05:32:51;;;;;;;1.20;0.80;;;;;;;5.06;78.12;100448.78;4996259;28;20036;-55
2023/03/27 05:35:30;;;;;;;0.20;0.20;;;;;;;5.02;78.42;100455.88;5012787;28;20038;-46
2023/03/27 05:37:57;;;;;;;0.60;0.60;;;;;;;5.06;78.49;100456.00;5007258;28;20116;-51
2023/03/27 05:40:38;;;;;;;1.67;1.02;;;;;;;5.09;78.77;100466.81;4999589;28;20084;-54
2023/03/27 05:43:04;;;;;;;0.40;0.40;;;;;;;5.09;78.56;100466.81;4994913;28;20447;-46
2023/03/27 05:45:32;;;;;;;0.30;0.30;;;;;;;4.97;80.03;100460.63;5006393;28;20293;-58
2023/03/27 05:48:00;;;;;;;0.55;0.55;;;;;;;5.03;79.67;100467.34;5021252;28;20030;-51
2023/03/27 05:50:32;;;;;;;0.32;0.32;;;;;;;5.06;80.18;100467.47;5006951;28;20710;-46
2023/03/27 05:53:00;;;;;;;0.90;0.63;;;;;;;5.16;79.87;100475.09;5005967;28;20080;-50
2023/03/27 05:55:31;;;;;;;0.20;0.20;;;;;;;5.01;80.62;100473.00;4997730;28;20038;-51
2023/03/27 05:57:57;;;;;;;0.60;0.60;;;;;;;4.94;81.46;100477.25;4988112;28;20044;-56
2023/03/27 06:00:25;;;;;;;0.70;0.40;;;;;;;4.98;81.44;100478.16;5005095;28;20036;-49
2023/03/27 06:02:56;;;;;;;1.10;0.60;;;;;;;4.97;81.42;100472.06;5004597;28;20045;-50
2023/03/27 06:05:32;;;;;;;0.55;0.55;;;;;;;5.01;81.45;100475.66;4988796;28;20033;-54
2023/03/27 06:08:01;;;;;;;0.30;0.30;;;;;;;4.87;81.99;100477.75;5005685;28;20447;-58
2023/03/27 06:10:28;;;;;;;0.30;0.30;;;;;;;4.81;83.08;100473.72;5000955;28;20721;-48
2023/03/27 06:13:07;;;;;;;0.40;0.40;;;;;;;4.79;83.14;100475.13;5003280;28;20033;-46
2023/03/27 06:15:44;;;;;;;0.38;0.38;;;;;;;4.80;83.10;100488.13;5002085;28;20660;-45
2023/03/27 06:18:31;;;;;;;0.43;0.43;;;;;;;4.75;84.28;100484.84;5001095;28;21236;-57
2023/03/27 06:20:58;;;;;;;0.60;0.50;;;;;;;4.73;85.00;100490.53;5019751;28;20053;-47
2023/03/27 06:23:25;;;;;;;0.30;0.25;;;;;;;4.78;84.55;100487.66;4996281;28;20116;-49
2023/03/27 06:25:51;;;;;;;0.38;0.38;;;;;;;4.91;84.58;100497.34;5018611;28;20030;-48
2023/03/27 06:28:21;;;;;;;0.63;0.63;;;;;;;5.17;83.21;100498.00;4993341;28;20045;-55
2023/03/27 06:30:48;;;;;;;0.45;0.45;;;;;;;5.27;82.97;100502.19;4995807;28;20037;-53
2023/03/27 06:33:46;;;;;;;0.98;0.60;;;;;;;5.03;83.12;100502.00;5001674;28;20100;-45
2023/03/27 06:36:31;;;;;;;0.30;0.30;;;;;;;5.18;83.18;100509.47;4995245;28;20045;-49
2023/03/27 06:38:56;;;;;;;0.45;0.40;;;;;;;5.13;83.80;100512.34;5017745;28;20641;-46
2023/03/27 06:41:22;;;;;;;0.32;0.32;;;;;;;5.33;82.94;100512.38;5001063;28;20088;-49
2023/03/27 06:44:07;;;;;;;0.32;0.32;;;;;;;5.39;83.33;100511.09;4995981;28;20046;-55
2023/03/27 06:46:49;;;;;;;;;;;;;;;5.34;83.52;100508.59;4993723;28;20064;-58
2023/03/27 06:49:17;;;;;;;1.65;0.40;;;;;;;5.41;84.27;100514.22;5011177;28;19914;-57
2023/03/27 06:51:43;;;;;;;0.30;0.30;;;;;;;5.61;83.92;100523.34;4989068;28;20437;-49
2023/03/27 06:54:12;;;;;;;0.32;0.32;;;;;;;5.95;82.91;100527.69;5009825;28;20501;-57
2023/03/27 06:56:43;;;;;;;0.52;0.50;;;;;;;6.09;82.21;100529.00;4989914;28;20098;-46
2023/03/27 06:59:16;;;;;;;2.92;0.55;;;;;;;6.39;81.79;100532.31;5019706;28;20091;-46
2023/03/27 07:01:45;;;;;;;0.25;0.25;;;;;;;6.58;79.78;100540.63;5000527;28;20065;-54
2023/03/27 07:04:33;;;;;;;0.30;0.30;;;;;;;6.57;78.87;100538.28;4999419;28;20069;-45
2023/03/27 07:07:12;;;;;;;0.20;0.20;;;;;;;6.66;78.43;100555.81;4999146;28;20037;-55
2023/03/27 07:09:40;;;;;;;0.40;0.30;;;;;;;6.66;78.01;100555.81;4986119;28;20141;-57
2023/03/27 07:12:10;;;;;;;0.50;0.40;;;;;;;6.49;78.20;100572.03;4999252;28;20073;-46
2023/03/27 07:14:37;;;;;;;0.30;0.30;;;;;;;6.65;79.01;100573.00;5023119;28;20424;-49
2023/03/27 07:17:03;;;;;;;0.35;0.35;;;;;;;6.48;81.67;100578.50;4999103;28;20026;-51
2023/03/27 07:19:52;;;;;;;0.30;0.30;;;;;;;6.33;83.01;100581.75;5007740;28;20022;-46
2023/03/27 07:22:22;;;;;;;0.32;0.32;;;;;;;6.33;84.66;100579.09;5006277;28;20026;-54
2023/03/27 07:24:48;;;;;;;0.20;0.20;;;;;;;6.39;85.19;100580.47;4997031;28;20108;-49
2023/03/27 07:27:15;;;;;;;0.25;0.25;;;;;;;6.63;84.89;100577.88;5002705;28;20697;-45
2023/03/27 07:29:41;;;;;;;2.08;0.40;;;;;;;6.81;85.89;100583.84;5004845;28;20129;-44
2023/03/27 07:32:12;;;;;;;0.43;0.32;;;;;;;7.26;84.91;100582.69;5002730;28;20038;-49
2023/03/27 07:34:49;;;;;;;0.43;0.40;;;;;;;7.31;84.00;100587.03;4980282;28;20034;-49
2023/03/27 07:37:14;;;;;;;0.38;0.38;;;;;;;7.32;82.62;100579.81;4991239;28;20046;-46
2023/03/27 07:40:00;;;;;;;0.35;0.35;;;;;;;7.29;81.72;100584.72;4993074;28;20444;-47
2023/03/27 07:42:27;;;;;;;1.45;0.40;;;;;;;7.41;82.27;100580.47;5006353;28;20116;-50
2023/03/27 07:45:00;;;;;;;0.75;0.75;;;;;;;7.79;81.51;100572.84;4994905;28;20579;-48
2023/03/27 07:47:26;;;;;;;0.38;0.38;;;;;;;8.00;79.65;100571.56;5022568;28;20032;-53
2023/03/27 07:49:52;;;;;;;0.30;0.30;;;;;;;8.25;79.91;100579.56;4999283;28;20026;-54
2023/03/27 07:52:21;;;;;;;0.20;0.20;;;;;;;8.69;78.87;100579.25;5005403;28;20034;-46
2023/03/27 07:54:55;;;;;;;2.15;0.40;;;;;;;8.84;75.66;100591.94;4998393;28;20030;-45
2023/03/27 07:57:23;;;;;;;0.20;0.20;;;;;;;8.80;74.22;100590.28;5018256;28;20028;-55
2023/03/27 07:59:51;;;;;;;1.17;0.40;;;;;;;8.87;72.89;100596.63;5006990;28;20038;-48
2023/03/27 08:02:26;;;;;;;0.28;0.28;;;;;;;8.97;71.89;100598.00;5004707;28;20532;-53
2023/03/27 08:04:52;;;;;;;0.20;0.20;;;;;;;9.22;71.98;100595.94;5007525;28;20091;-46
2023/03/27 08:07:20;;;;;;;0.60;0.60;;;;;;;9.53;69.83;100598.63;5007734;28;20500;-57
2023/03/27 08:09:47;;;;;;;0.13;0.13;;;;;;;9.88;68.94;100602.13;5006579;28;20116;-45
2023/03/27 08:12:14;;;;;;;4.25;0.40;;;;;;;9.95;66.55;100608.44;4996982;28;20022;-48
2023/03/27 08:14:45;;;;;;;0.15;0.10;;;;;;;10.21;64.62;100604.38;5007474;28;20056;-46
2023/03/27 08:17:27;;;;;;;0.17;0.17;;;;;;;10.41;60.66;100605.97;5003752;28;20046;-50
2023/03/27 08:19:53;;;;;;;0.28;0.28;;;;;;;10.39;61.33;100605.53;5008034;28;20500;-55
2023/03/27 08:22:20;;;;;;;5.75;0.30;;;;;;;10.59;60.37;100607.88;5024573;28;20034;-52
2023/03/27 08:25:06;;;;;;;0.15;0.10;;;;;;;10.88;57.93;100615.34;5001919;28;20033;-48
2023/03/27 08:27:32;;;;;;;0.10;0.10;;;;;;;11.07;56.69;100608.38;5005378;28;20092;-46
2023/03/27 08:30:00;;;;;;;0.10;0.10;;;;;;;11.08;60.78;100612.59;5024377;28;20053;-48
2023/03/27 08:32:26;;;;;;;0.20;0.20;;;;;;;11.00;60.50;100622.47;5002842;28;20025;-53
2023/03/27 08:34:54;;;;;;;0.13;0.13;;;;;;;10.71;59.85;100621.19;5006432;28;20049;-54
2023/03/27 08:37:22;;;;;;;0.20;0.20;;;;;;;10.72;58.12;100622.72;5003946;28;20042;-55
2023/03/27 08:40:22;;;;;;;0.00;0.00;;;;;;;10.59;58.41;100626.72;4997740;28;20477;-57
2023/03/27 08:42:52;;;;;;;0.35;0.30;;;;;;;10.90;56.44;100623.06;4995730;28;20072;-45
2023/03/27 08:45:26;;;;;;;0.10;0.10;;;;;;;10.72;53.84;100638.13;5005161;28;20540;-52
2023/03/27 08:48:08;;;;;;;0.03;0.03;;;;;;;10.72;55.04;100632.75;5021837;28;20038;-46
2023/03/27 08:50:46;;;;;;;0.10;0.10;;;;;;;11.16;55.22;100635.84;5002829;28;20033;-53
2023/03/27 08:53:43;;;;;;;0.10;0.10;;;;;;;11.39;54.61;100637.41;5009577;28;20065;-58
2023/03/27 08:56:13;;;;;;;0.08;0.08;;;;;;;11.67;53.45;100653.31;4990640;28;20037;-45
2023/03/27 08:58:42;;;;;;;1.08;0.38;;;;;;;11.56;51.07;100646.91;4999605;28;20068;-48
2023/03/27 09:01:26;;;;;;;0.28;0.17;;;;;;;11.28;51.83;100649.94;4991424;28;20062;-50
2023/03/27 09:03:56;;;;;;;1.67;0.50;;;;;;;10.93;51.47;100648.50;5025811;28;20030;-51
2023/03/27 09:06:36;;;;;;;0.20;0.20;;;;;;;10.42;52.72;100645.19;5004522;28;20049;-48
2023/03/27 09:09:15;;;;;;;0.28;0.10;;;;;;;10.48;53.25;100657.25;5017367;28;20034;-45
2023/03/27 09:12:00;;;;;;;0.10;0.10;;;;;;;10.15;53.22;100656.91;5004652;28;20209;-55
2023/03/27 09:14:43;;;;;;;0.03;0.03;;;;;;;10.25;53.85;100649.09;5011749;28;20042;-46
2023/03/27 09:17:19;;;;;;;0.10;0.10;;;;;;;10.37;55.14;100661.63;5017837;28;20033;-56
2023/03/27 09:19:53;;;;;;;1.27;0.30;;;;;;;10.93;51.96;100657.38;5007993;28;20040;-48
2023/03/27 09:22:31;;;;;;;0.20;0.20;;;;;;;11.30;51.68;100654.97;5007314;28;20567;-53
2023/03/27 09:25:28;;;;;;;0.75;0.43;;;;;;;11.55;51.26;100669.66;5001519;28;20149;-51
2023/03/27 09:27:59;;;;;;;0.10;0.10;;;;;;;11.35;49.72;100670.84;5004622;28;20400;-48
2023/03/27 09:30:49;;;;;;;0.10;0.10;;;;;;;11.64;51.01;100657.47;5008659;28;20029;-48
2023/03/27 09:33:26;;;;;;;0.10;0.10;;;;;;;12.03;50.19;100670.81;5003532;28;20651;-51
2023/03/27 09:35:52;;;;;;;0.82;0.28;;;;;;;12.14;49.24;100669.03;4997428;28;20767;-49
2023/03/27 09:38:41;;;;;;;0.00;0.00;;;;;;;12.34;47.59;100667.78;4999442;28;20026;-58
2023/03/27 09:41:17;;;;;;;0.10;0.10;;;;;;;12.17;48.31;100674.50;5016342;28;20096;-47
2023/03/27 09:44:09;;;;;;;0.10;0.10;;;;;;;12.59;46.83;100674.28;5002579;28;20029;-47
2023/03/27 09:46:43;;;;;;;0.10;0.10;;;;;;;12.60;46.78;100673.13;4996821;28;20052;-55
2023/03/27 09:49:13;;;;;;;0.20;0.10;;;;;;;12.55;47.14;100666.13;5006270;28;20025;-47
2023/03/27 09:51:49;;;;;;;0.17;0.17;;;;;;;12.72;47.02;100680.22;5024457;28;20046;-55
2023/03/27 09:54:53;;;;;;;0.90;0.20;;;;;;;12.79;46.61;100672.97;5004017;28;20141;-56
2023/03/27 09:57:31;;;;;;;0.25;0.00;;;;;;;12.26;46.91;100668.81;5011771;28;20121;-48
2023/03/27 10:00:00;;;;;;;0.10;0.08;;;;;;;12.43;47.10;100677.16;5023935;28;20026;-48
2023/03/27 10:02:28;;;;;;;0.03;0.03;;;;;;;12.58;45.87;100681.59;5005743;28;20088;-46
2023/03/27 10:05:01;;;;;;;0.10;0.10;;;;;;;12.80;46.16;100684.53;5003541;28;20021;-52
2023/03/27 10:07:32;;;;;;;0.00;0.00;;;;;;;12.92;45.54;100678.91;5006448;28;20034;-45
2023/03/27 10:10:36;;;;;;;0.20;0.10;;;;;;;12.89;46.13;100687.75;4994185;28;20038;-51
2023/03/27 10:13:05;;;;;;;;;;;;;;;12.72;45.27;100688.34;5006121;28;20045;-46
2023/03/27 10:15:45;;;;;;;0.20;0.20;;;;;;;12.79;46.68;100683.00;5019056;28;19921;-45
2023/03/27 10:18:30;;;;;;;0.25;0.17;;;;;;;12.81;46.59;100675.31;5002672;28;20037;-46
2023/03/27 10:21:10;;;;;;;0.10;0.05;;;;;;;13.12;45.51;100689.22;4996560;28;20314;-55
2023/03/27 10:23:48;;;;;;;0.20;0.20;;;;;;;13.47;43.18;100683.38;5017803;28;20185;-46
2023/03/27 10:26:47;;;;;;;0.00;0.00;;;;;;;13.28;44.29;100683.56;5001377;28;20026;-48
2023/03/27 10:29:25;;;;;;;0.10;0.10;;;;;;;13.54;43.90;100683.41;5001321;28;20042;-46
2023/03/27 10:31:54;;;;;;;0.00;0.00;;;;;;;13.74;42.88;100682.06;5010315;28;20042;-46
2023/03/27 10:34:49;;;;;;;0.00;0.00;;;;;;;14.00;41.97;100689.97;4992008;28;20049;-48
2023/03/27 10:37:28;;;;;;;0.00;0.00;;;;;;;13.45;42.73;100699.19;4998450;28;20109;-57
2023/03/27 10:40:20;;;;;;;0.17;0.10;;;;;;;13.39;42.95;100687.16;4999833;28;20030;-56
2023/03/27 10:42:49;;;;;;;0.10;0.10;;;;;;;12.82;42.75;100695.75;5005582;28;20112;-46
2023/03/27 10:45:20;;;;;;;0.03;0.03;;;;;;;12.36;43.60;100709.47;4997257;28;20580;-50
2023/03/27 10:47:52;;;;;;;0.00;0.00;;;;;;;11.67;46.40;100718.06;4994121;28;20040;-55
2023/03/27 10:50:32;;;;;;;0.10;0.10;;;;;;;11.13;49.32;100720.13;5003861;28;20382;-48
2023/03/27 10:53:22;;;;;;;0.00;0.00;;;;;;;10.71;53.01;100753.16;5022169;28;20372;-57
2023/03/27 10:56:35;;;;;;;0.10;0.10;;;;;;;9.99;53.28;100778.78;5019039;28;20392;-48
2023/03/27 10:59:13;;;;;;;0.10;0.10;;;;;;;9.64;56.67;100799.38;4972136;28;20049;-53
2023/03/27 11:01:48;;;;;;;0.10;0.10;;;;;;;9.06;66.26;100825.03;5006933;28;20065;-48
2023/03/27 11:04:23;;;;;;;0.10;0.10;;;;;;;8.62;71.22;100826.00;5017292;28;20046;-51
2023/03/27 11:06:56;;;;;;;0.10;0.10;;;;;;;8.70;71.34;100827.81;5007116;28;20030;-50
2023/03/27 11:09:35;;;;;;;0.20;0.20;;;;;;;8.27;72.33;100798.06;5008508;28;21415;-46
2023/03/27 11:12:10;;;;;;;0.20;0.20;;;;;;;8.35;73.21;100794.50;5015712;28;20034;-49
2023/03/27 11:14:59;;;;;;;0.30;0.30;;;;;;;8.33;73.61;100794.03;5009580;28;20031;-53
2023/03/27 11:17:34;;;;;;;0.55;0.40;;;;;;;8.18;75.25;100786.66;5001790;28;20042;-57
2023/03/27 11:20:21;;;;;;;0.30;0.30;;;;;;;8.51;76.34;100779.28;4995753;28;20129;-52
2023/03/27 11:23:37;;;;;;;0.20;0.20;;;;;;;8.93;77.04;100790.50;5001249;28;20382;-55
2023/03/27 11:26:17;;;;;;;0.38;0.20;;;;;;;9.44;77.48;100786.16;4993168;28;20042;-56
2023/03/27 11:28:51;;;;;;;0.20;0.20;;;;;;;9.79;77.91;100790.53;5002607;28;20045;-53
2023/03/27 11:31:32;;;;;;;0.17;0.17;;;;;;;10.06;77.81;100791.63;5006069;28;20113;-46
2023/03/27 11:34:07;;;;;;;0.38;0.30;;;;;;;10.28;76.50;100792.94;5006182;28;20080;-47
2023/03/27 11:36:38;;;;;;;0.08;0.08;;;;;;;10.55;75.46;100786.66;5005827;28;20025;-57
2023/03/27 11:39:16;;;;;;;0.28;0.28;;;;;;;10.77;73.92;100784.06;4985828;28;20096;-52
2023/03/27 11:41:55;;;;;;;0.55;0.20;;;;;;;11.07;72.45;100786.22;5016831;28;20030;-53
2023/03/27 11:44:22;;;;;;;0.20;0.20;;;;;;;11.61;70.25;100784.97;5018883;28;20037;-51
2023/03/27 11:47:49;;;;;;;0.10;0.10;;;;;;;11.58;68.70;100779.50;4991746;28;20779;-53
2023/03/27 11:50:21;;;;;;;0.10;0.10;;;;;;;11.57;70.90;100783.34;4998706;28;20061;-56
2023/03/27 11:53:16;;;;;;;0.85;0.20;;;;;;;11.77;67.89;100774.09;4994893;28;20042;-47
2023/03/27 11:56:09;;;;;;;0.10;0.10;;;;;;;11.90;68.17;100782.81;4994096;28;20574;-52
2023/03/27 11:59:11;;;;;;;0.20;0.20;;;;;;;11.70;66.24;100792.84;5003322;28;20046;-50
2023/03/27 12:02:02;;;;;;;0.08;0.08;;;;;;;11.73;64.00;100787.53;5006857;28;20485;-53
2023/03/27 12:04:47;;;;;;;0.30;0.10;;;;;;;11.44;64.92;100801.59;4963206;28;20046;-54
2023/03/27 12:07:57;;;;;;;0.38;0.32;;;;;;;11.33;65.69;100791.75;5002797;28;20030;-45